createdAt,value
2023-05-19T00:01:19.127Z,19.02
2023-05-19T00:03:54.256Z,19.02
2023-05-19T00:06:27.924Z,19.02
2023-05-19T00:08:58.679Z,19.00
2023-05-19T00:11:26.938Z,19.00
2023-05-19T00:13:54.991Z,18.97
2023-05-19T00:16:22.933Z,18.93
2023-05-19T00:18:49.790Z,18.93
2023-05-19T00:21:16.816Z,18.95
2023-05-19T00:23:43.618Z,18.94
2023-05-19T00:26:10.824Z,18.92
2023-05-19T00:28:37.296Z,18.93
2023-05-19T00:31:05.476Z,18.94
2023-05-19T00:33:33.811Z,18.95
2023-05-19T00:36:03.381Z,18.94
2023-05-19T00:38:35.025Z,18.95
2023-05-19T00:41:02.668Z,18.94
2023-05-19T00:43:30.425Z,18.94
2023-05-19T00:45:57.627Z,18.93
2023-05-19T00:48:25.564Z,18.94
2023-05-19T00:50:54.881Z,18.89
2023-05-19T00:53:22.994Z,18.85
2023-05-19T00:55:49.495Z,18.89
2023-05-19T00:58:16.667Z,18.89
2023-05-19T01:00:43.349Z,18.90
2023-05-19T01:03:13.035Z,18.89
2023-05-19T01:05:54.781Z,18.87
2023-05-19T01:08:21.270Z,18.87
2023-05-19T01:10:47.983Z,18.90
2023-05-19T01:13:15.031Z,18.91
2023-05-19T01:16:13.111Z,18.90
2023-05-19T01:18:58.384Z,18.91
2023-05-19T01:21:48.192Z,18.89
2023-05-19T01:24:27.933Z,18.89
2023-05-19T01:27:18.468Z,18.89
2023-05-19T01:29:50.702Z,18.89
2023-05-19T01:32:19.582Z,18.86
2023-05-19T01:34:48.252Z,18.86
2023-05-19T01:37:17.727Z,18.81
2023-05-19T01:39:45.155Z,18.83
2023-05-19T01:42:12.830Z,18.80
2023-05-19T01:44:39.486Z,18.82
2023-05-19T01:47:06.174Z,18.80
2023-05-19T01:49:32.633Z,18.77
2023-05-19T01:51:59.110Z,18.77
2023-05-19T01:54:25.579Z,18.81
2023-05-19T01:57:10.107Z,18.73
2023-05-19T02:00:05.697Z,18.76
2023-05-19T02:03:03.915Z,18.72
2023-05-19T02:05:54.838Z,18.73
2023-05-19T02:08:38.561Z,18.76
2023-05-19T02:11:14.920Z,18.80
2023-05-19T02:13:44.159Z,18.76
2023-05-19T02:16:13.254Z,18.78
2023-05-19T02:18:40.546Z,18.76
2023-05-19T02:21:07.120Z,18.71
2023-05-19T02:23:33.581Z,18.71
2023-05-19T02:26:01.095Z,18.69
2023-05-19T02:28:28.457Z,18.69
2023-05-19T02:30:54.992Z,18.71
2023-05-19T02:33:24.614Z,18.73
2023-05-19T02:35:51.158Z,18.67
2023-05-19T02:38:18.125Z,18.69
2023-05-19T02:40:44.599Z,18.70
2023-05-19T02:43:11.115Z,18.68
2023-05-19T02:45:37.577Z,18.66
2023-05-19T02:48:04.385Z,18.66
2023-05-19T02:50:31.043Z,18.64
2023-05-19T02:52:57.640Z,18.62
2023-05-19T02:55:24.240Z,18.67
2023-05-19T02:57:50.837Z,18.69
2023-05-19T03:00:20.143Z,18.65
2023-05-19T03:02:46.926Z,18.63
2023-05-19T03:05:14.402Z,18.59
2023-05-19T03:07:40.900Z,18.64
2023-05-19T03:10:08.458Z,18.62
2023-05-19T03:12:35.030Z,18.62
2023-05-19T03:15:01.616Z,18.59
2023-05-19T03:17:33.573Z,18.64
2023-05-19T03:20:01.499Z,18.63
2023-05-19T03:22:27.975Z,18.64
2023-05-19T03:24:54.509Z,18.59
2023-05-19T03:27:21.256Z,18.59
2023-05-19T03:29:47.896Z,18.60
2023-05-19T03:32:14.463Z,18.59
2023-05-19T03:34:40.941Z,18.59
2023-05-19T03:37:07.891Z,18.59
2023-05-19T03:39:34.359Z,18.61
2023-05-19T03:42:00.908Z,18.56
2023-05-19T03:44:27.416Z,18.59
2023-05-19T03:46:53.843Z,18.57
2023-05-19T03:49:20.273Z,18.56
2023-05-19T03:51:47.012Z,18.58
2023-05-19T03:54:13.496Z,18.58
2023-05-19T03:56:41.076Z,18.58
2023-05-19T03:59:07.814Z,18.51
2023-05-19T04:01:34.251Z,18.51
2023-05-19T04:04:00.774Z,18.52
2023-05-19T04:06:27.526Z,18.53
2023-05-19T04:08:54.019Z,18.56
2023-05-19T04:11:21.460Z,18.51
2023-05-19T04:13:47.933Z,18.51
2023-05-19T04:16:14.727Z,18.51
2023-05-19T04:18:41.258Z,18.52
2023-05-19T04:21:08.670Z,18.53
2023-05-19T04:23:35.118Z,18.50
2023-05-19T04:26:02.450Z,18.49
2023-05-19T04:28:29.901Z,18.45
2023-05-19T04:30:58.526Z,18.45
2023-05-19T04:33:25.083Z,18.48
2023-05-19T04:35:51.751Z,18.48
2023-05-19T04:38:19.996Z,18.49
2023-05-19T04:40:46.536Z,18.49
2023-05-19T04:43:13.081Z,18.49
2023-05-19T04:45:42.520Z,18.51
2023-05-19T04:48:09.046Z,18.53
2023-05-19T04:50:38.544Z,18.52
2023-05-19T04:53:05.078Z,18.52
2023-05-19T04:55:32.868Z,18.49
2023-05-19T04:57:59.333Z,18.52
2023-05-19T05:00:25.988Z,18.52
2023-05-19T05:02:52.491Z,18.53
2023-05-19T05:05:19.021Z,18.52
2023-05-19T05:07:45.983Z,18.51
2023-05-19T05:10:12.486Z,18.49
2023-05-19T05:12:39.195Z,18.49
2023-05-19T05:15:07.084Z,18.50
2023-05-19T05:17:35.423Z,18.50
2023-05-19T05:20:04.530Z,18.47
2023-05-19T05:22:31.245Z,18.44
2023-05-19T05:24:58.015Z,18.44
2023-05-19T05:27:24.558Z,18.39
2023-05-19T05:29:51.678Z,18.33
2023-05-19T05:32:18.268Z,18.42
2023-05-19T05:34:45.105Z,18.43
2023-05-19T05:37:13.152Z,18.41
2023-05-19T05:39:41.086Z,18.37
2023-05-19T05:42:09.159Z,18.42
2023-05-19T05:44:35.869Z,18.43
2023-05-19T05:47:03.813Z,18.50
2023-05-19T05:49:30.941Z,18.53
2023-05-19T05:52:05.522Z,18.55
2023-05-19T05:54:33.431Z,18.55
2023-05-19T05:57:00.201Z,18.57
2023-05-19T05:59:26.632Z,18.57
2023-05-19T06:01:53.139Z,18.59
2023-05-19T06:04:21.123Z,18.62
2023-05-19T06:06:47.999Z,18.63
2023-05-19T06:09:14.512Z,18.64
2023-05-19T06:11:40.974Z,18.66
2023-05-19T06:14:07.412Z,18.68
2023-05-19T06:16:33.964Z,18.69
2023-05-19T06:19:00.652Z,18.69
2023-05-19T06:21:27.184Z,18.70
2023-05-19T06:23:53.686Z,18.72
2023-05-19T06:26:20.195Z,18.72
2023-05-19T06:28:46.701Z,18.73
2023-05-19T06:31:13.222Z,18.74
2023-05-19T06:33:39.701Z,18.77
2023-05-19T06:36:06.410Z,18.72
2023-05-19T06:38:32.921Z,18.72
2023-05-19T06:40:59.381Z,18.74
2023-05-19T06:43:25.982Z,18.74
2023-05-19T06:45:52.617Z,18.74
2023-05-19T06:48:19.071Z,18.73
2023-05-19T06:50:46.052Z,18.75
2023-05-19T06:53:12.594Z,18.75
2023-05-19T06:55:47.201Z,18.76
2023-05-19T06:58:24.473Z,18.77
2023-05-19T07:00:51.087Z,18.78
2023-05-19T07:03:18.025Z,18.78
2023-05-19T07:05:44.652Z,18.77
2023-05-19T07:08:11.101Z,18.78
2023-05-19T07:10:37.705Z,18.80
2023-05-19T07:13:04.590Z,18.79
2023-05-19T07:15:31.236Z,18.80
2023-05-19T07:17:58.468Z,18.80
2023-05-19T07:20:25.025Z,18.79
2023-05-19T07:22:51.524Z,18.80
2023-05-19T07:25:17.983Z,18.80
2023-05-19T07:27:45.685Z,18.81
2023-05-19T07:30:12.551Z,18.80
2023-05-19T07:32:39.186Z,18.82
2023-05-19T07:35:06.305Z,18.82
2023-05-19T07:37:32.816Z,18.82
2023-05-19T07:39:59.280Z,18.85
2023-05-19T07:42:25.747Z,18.81
2023-05-19T07:44:52.166Z,18.84
2023-05-19T07:47:18.647Z,18.84
2023-05-19T07:49:45.129Z,18.83
2023-05-19T07:52:11.626Z,18.82
2023-05-19T07:54:38.115Z,18.84
2023-05-19T07:57:04.682Z,18.77
2023-05-19T07:59:31.389Z,18.62
2023-05-19T08:01:58.583Z,18.60
2023-05-19T08:04:25.135Z,18.60
2023-05-19T08:06:53.058Z,18.59
2023-05-19T08:09:20.151Z,18.60
2023-05-19T08:11:47.050Z,18.63
2023-05-19T08:14:13.540Z,18.65
2023-05-19T08:16:42.264Z,18.67
2023-05-19T08:19:09.324Z,18.72
2023-05-19T08:21:36.645Z,18.73
2023-05-19T08:24:03.594Z,18.74
2023-05-19T08:26:30.141Z,18.75
2023-05-19T08:28:56.695Z,18.74
2023-05-19T08:31:23.598Z,18.70
2023-05-19T08:33:50.173Z,18.74
2023-05-19T08:36:17.025Z,18.69
2023-05-19T08:38:43.471Z,18.69
2023-05-19T08:41:10.746Z,18.72
2023-05-19T08:43:39.414Z,18.77
2023-05-19T08:46:08.235Z,18.80
2023-05-19T08:48:35.520Z,18.90
2023-05-19T08:51:17.870Z,19.07
2023-05-19T08:53:51.747Z,19.04
2023-05-19T08:56:25.189Z,18.99
2023-05-19T08:58:51.865Z,18.96
2023-05-19T09:01:20.023Z,18.96
2023-05-19T09:03:49.725Z,18.95
2023-05-19T09:06:16.755Z,18.93
2023-05-19T09:08:43.846Z,18.94
2023-05-19T09:11:10.765Z,18.94
2023-05-19T09:13:37.277Z,18.96
2023-05-19T09:16:03.967Z,18.93
2023-05-19T09:18:30.556Z,18.94
2023-05-19T09:21:02.445Z,18.92
2023-05-19T09:23:31.690Z,18.93
2023-05-19T09:25:58.276Z,18.92
2023-05-19T09:28:30.573Z,18.98
2023-05-19T09:31:01.191Z,18.96
2023-05-19T09:33:28.614Z,18.96
2023-05-19T09:35:56.803Z,18.96
2023-05-19T09:38:27.087Z,18.97
2023-05-19T09:40:57.294Z,18.95
2023-05-19T09:43:23.972Z,18.97
2023-05-19T09:46:01.113Z,18.99
2023-05-19T09:48:27.981Z,18.98
2023-05-19T09:50:54.989Z,18.99
2023-05-19T09:53:22.381Z,19.01
2023-05-19T09:55:49.914Z,19.01
2023-05-19T09:58:18.381Z,19.03
2023-05-19T10:00:51.448Z,19.03
2023-05-19T10:03:18.905Z,19.03
2023-05-19T10:05:46.381Z,19.04
2023-05-19T10:08:14.261Z,19.06
2023-05-19T10:10:41.434Z,19.09
2023-05-19T10:13:07.961Z,19.06
2023-05-19T10:15:40.835Z,19.05
2023-05-19T10:18:15.628Z,19.05
2023-05-19T10:20:42.577Z,19.05
2023-05-19T10:23:09.054Z,19.06
2023-05-19T10:25:36.526Z,19.06
2023-05-19T10:28:11.471Z,19.04
2023-05-19T10:30:51.251Z,19.06
2023-05-19T10:33:21.123Z,19.07
2023-05-19T10:36:09.061Z,19.06
2023-05-19T10:38:50.458Z,19.08
2023-05-19T10:41:26.920Z,19.09
2023-05-19T10:44:17.719Z,19.13
2023-05-19T10:46:44.346Z,19.10
2023-05-19T10:49:10.940Z,19.10
2023-05-19T10:51:37.389Z,19.10
2023-05-19T10:54:14.377Z,19.10
2023-05-19T10:56:45.771Z,19.13
2023-05-19T10:59:32.477Z,19.13
2023-05-19T11:02:08.288Z,19.14
2023-05-19T11:04:51.274Z,19.10
2023-05-19T11:07:20.370Z,19.07
2023-05-19T11:09:54.319Z,19.06
2023-05-19T11:12:25.450Z,19.09
2023-05-19T11:14:55.503Z,19.10
2023-05-19T11:17:24.591Z,19.13
2023-05-19T11:19:55.908Z,19.13
2023-05-19T11:22:27.159Z,19.14
2023-05-19T11:24:57.428Z,19.14
2023-05-19T11:27:34.628Z,19.14
2023-05-19T11:30:02.227Z,19.14
2023-05-19T11:32:30.539Z,19.15
2023-05-19T11:34:57.981Z,19.14
2023-05-19T11:37:24.634Z,19.17
2023-05-19T11:39:52.272Z,19.20
2023-05-19T11:42:19.846Z,19.24
2023-05-19T11:44:46.831Z,19.30
2023-05-19T11:47:14.533Z,19.36
2023-05-19T11:49:54.807Z,19.47
2023-05-19T11:52:23.196Z,19.52
2023-05-19T11:54:49.828Z,19.61
2023-05-19T11:57:16.759Z,19.67
2023-05-19T11:59:48.143Z,19.76
2023-05-19T12:02:19.941Z,19.84
2023-05-19T12:04:49.859Z,19.89
2023-05-19T12:07:18.451Z,19.96
2023-05-19T12:09:48.158Z,20.03
2023-05-19T12:12:17.014Z,20.10
2023-05-19T12:14:43.870Z,20.14
2023-05-19T12:17:15.002Z,20.12
2023-05-19T12:19:44.887Z,20.17
2023-05-19T12:22:12.500Z,20.26
2023-05-19T12:24:40.077Z,20.31
2023-05-19T12:27:16.879Z,20.37
2023-05-19T12:29:43.395Z,20.35
2023-05-19T12:32:10.134Z,20.36
2023-05-19T12:34:38.276Z,20.34
2023-05-19T12:37:06.082Z,20.31
2023-05-19T12:39:33.769Z,20.25
2023-05-19T12:42:11.305Z,20.21
2023-05-19T12:44:52.687Z,20.16
2023-05-19T12:47:20.325Z,20.13
2023-05-19T12:49:57.120Z,20.09
2023-05-19T12:52:24.231Z,20.06
2023-05-19T12:55:02.057Z,20.03
2023-05-19T12:57:32.117Z,19.99
2023-05-19T13:00:06.818Z,19.98
2023-05-19T13:02:36.164Z,19.95
2023-05-19T13:05:04.898Z,19.93
2023-05-19T13:07:31.423Z,19.91
2023-05-19T13:09:58.660Z,19.89
2023-05-19T13:12:26.064Z,19.86
2023-05-19T13:14:55.416Z,19.84
2023-05-19T13:17:22.319Z,19.83
2023-05-19T13:19:48.845Z,19.82
2023-05-19T13:22:15.359Z,19.79
2023-05-19T13:24:41.784Z,19.76
2023-05-19T13:27:08.430Z,19.76
2023-05-19T13:29:36.131Z,19.77
2023-05-19T13:32:02.571Z,19.79
2023-05-19T13:34:29.274Z,19.78
2023-05-19T13:36:56.067Z,19.78
2023-05-19T13:39:22.566Z,19.75
2023-05-19T13:41:49.198Z,19.75
2023-05-19T13:44:16.779Z,19.73
2023-05-19T13:46:45.670Z,19.72
2023-05-19T13:49:13.417Z,19.78
2023-05-19T13:51:43.486Z,19.75
2023-05-19T13:54:10.330Z,19.72
2023-05-19T13:56:36.974Z,19.73
2023-05-19T13:59:04.116Z,19.70
2023-05-19T14:01:30.804Z,19.70
2023-05-19T14:03:57.561Z,19.71
2023-05-19T14:06:24.545Z,19.73
2023-05-19T14:08:51.197Z,19.74
2023-05-19T14:11:19.741Z,19.74
2023-05-19T14:13:52.482Z,19.73
2023-05-19T14:16:20.465Z,19.74
2023-05-19T14:18:47.053Z,19.75
2023-05-19T14:21:13.751Z,19.75
2023-05-19T14:23:40.193Z,19.78
2023-05-19T14:26:06.740Z,19.80
2023-05-19T14:28:33.247Z,19.78
2023-05-19T14:30:59.725Z,19.78
2023-05-19T14:33:26.207Z,19.78
2023-05-19T14:35:53.274Z,19.79
2023-05-19T14:38:19.711Z,19.79
2023-05-19T14:40:48.304Z,19.80
2023-05-19T14:43:14.829Z,19.80
2023-05-19T14:45:43.842Z,19.80
2023-05-19T14:48:13.922Z,19.80
2023-05-19T14:50:40.500Z,19.82
2023-05-19T14:53:07.433Z,19.85
2023-05-19T14:55:33.995Z,19.95
2023-05-19T14:58:00.468Z,20.01
2023-05-19T15:00:27.003Z,20.05
2023-05-19T15:02:54.164Z,20.10
2023-05-19T15:05:22.815Z,20.15
2023-05-19T15:07:49.266Z,20.19
2023-05-19T15:10:16.737Z,20.25
2023-05-19T15:12:43.253Z,20.25
2023-05-19T15:15:10.231Z,20.24
2023-05-19T15:17:36.823Z,20.23
2023-05-19T15:20:03.549Z,20.26
2023-05-19T15:22:30.035Z,20.27
2023-05-19T15:24:56.507Z,20.34
2023-05-19T15:27:23.430Z,20.39
2023-05-19T15:29:49.880Z,20.44
2023-05-19T15:32:16.440Z,20.49
2023-05-19T15:34:42.951Z,20.56
2023-05-19T15:37:09.495Z,20.64
2023-05-19T15:39:36.042Z,20.71
2023-05-19T15:42:02.564Z,20.81
2023-05-19T15:44:29.991Z,20.87
2023-05-19T15:46:56.499Z,20.92
2023-05-19T15:49:25.064Z,20.96
2023-05-19T15:51:51.839Z,21.05
2023-05-19T15:54:18.647Z,21.11
2023-05-19T15:56:45.203Z,21.13
2023-05-19T15:59:11.669Z,21.18
2023-05-19T16:01:38.293Z,21.21
2023-05-19T16:04:05.076Z,21.23
2023-05-19T16:06:31.653Z,21.17
2023-05-19T16:08:58.160Z,21.16
2023-05-19T16:11:24.665Z,21.13
2023-05-19T16:13:51.103Z,21.12
2023-05-19T16:16:18.793Z,21.07
2023-05-19T16:18:45.475Z,21.03
2023-05-19T16:21:12.016Z,20.97
2023-05-19T16:23:38.551Z,20.92
2023-05-19T16:26:05.075Z,20.89
2023-05-19T16:28:32.431Z,20.85
2023-05-19T16:31:00.202Z,20.81
2023-05-19T16:33:27.914Z,20.78
2023-05-19T16:35:54.407Z,20.76
2023-05-19T16:38:21.003Z,20.70
2023-05-19T16:40:47.797Z,20.61
2023-05-19T16:43:14.432Z,20.56
2023-05-19T16:45:40.957Z,20.53
2023-05-19T16:48:07.705Z,20.53
2023-05-19T16:50:34.761Z,20.49
2023-05-19T16:53:01.302Z,20.49
2023-05-19T16:55:27.767Z,20.47
2023-05-19T16:57:54.284Z,20.45
2023-05-19T17:00:20.971Z,20.44
2023-05-19T17:02:48.060Z,20.46
2023-05-19T17:05:14.681Z,20.47
2023-05-19T17:07:41.179Z,20.44
2023-05-19T17:10:08.316Z,20.39
2023-05-19T17:12:34.766Z,20.38
2023-05-19T17:15:01.536Z,20.38
2023-05-19T17:17:28.076Z,20.37
2023-05-19T17:19:54.710Z,20.36
2023-05-19T17:22:21.188Z,20.35
2023-05-19T17:24:47.984Z,20.35
2023-05-19T17:27:15.084Z,20.37
2023-05-19T17:29:41.637Z,20.37
2023-05-19T17:32:08.253Z,20.35
2023-05-19T17:34:34.726Z,20.35
2023-05-19T17:37:01.451Z,20.34
2023-05-19T17:39:28.036Z,20.32
2023-05-19T17:41:54.477Z,20.31
2023-05-19T17:44:21.336Z,20.32
2023-05-19T17:46:47.994Z,20.31
2023-05-19T17:49:15.385Z,20.30
2023-05-19T17:51:42.093Z,20.25
2023-05-19T17:54:08.889Z,20.25
2023-05-19T17:56:40.845Z,20.27
2023-05-19T17:59:07.613Z,20.27
2023-05-19T18:01:34.249Z,20.27
2023-05-19T18:04:01.527Z,20.26
2023-05-19T18:06:29.361Z,20.27
2023-05-19T18:08:58.910Z,20.25
2023-05-19T18:11:28.604Z,20.25
2023-05-19T18:13:55.176Z,20.24
2023-05-19T18:16:21.694Z,20.23
2023-05-19T18:18:50.412Z,20.23
2023-05-19T18:21:18.082Z,20.24
2023-05-19T18:23:45.679Z,20.23
2023-05-19T18:26:15.890Z,20.20
2023-05-19T18:28:42.401Z,20.18
2023-05-19T18:31:09.359Z,20.19
2023-05-19T18:33:35.891Z,20.17
2023-05-19T18:36:02.367Z,20.15
2023-05-19T18:38:28.845Z,20.15
2023-05-19T18:40:56.745Z,20.22
2023-05-19T18:43:23.578Z,20.25
2023-05-19T18:45:50.143Z,20.31
2023-05-19T18:48:16.709Z,20.37
2023-05-19T18:50:44.608Z,20.44
2023-05-19T18:53:11.802Z,20.52
2023-05-19T18:55:38.659Z,20.59
2023-05-19T18:58:06.127Z,20.65
2023-05-19T19:00:33.126Z,20.72
2023-05-19T19:03:00.098Z,20.77
2023-05-19T19:05:26.629Z,20.81
2023-05-19T19:07:53.392Z,20.85
2023-05-19T19:10:20.085Z,20.91
2023-05-19T19:12:46.762Z,20.95
2023-05-19T19:15:13.262Z,21.01
2023-05-19T19:17:43.612Z,21.03
2023-05-19T19:20:10.639Z,21.08
2023-05-19T19:22:37.198Z,21.10
2023-05-19T19:25:03.840Z,21.13
2023-05-19T19:27:31.405Z,21.16
2023-05-19T19:29:58.635Z,21.16
2023-05-19T19:32:25.512Z,21.15
2023-05-19T19:34:53.307Z,21.12
2023-05-19T19:37:19.887Z,21.07
2023-05-19T19:39:46.698Z,21.05
2023-05-19T19:42:13.169Z,21.01
2023-05-19T19:44:39.711Z,20.96
2023-05-19T19:47:06.486Z,20.90
2023-05-19T19:49:33.524Z,20.84
2023-05-19T19:52:00.032Z,20.79
2023-05-19T19:54:26.471Z,20.76
2023-05-19T19:56:52.924Z,20.71
2023-05-19T19:59:19.694Z,20.65
2023-05-19T20:01:46.219Z,20.54
2023-05-19T20:04:12.908Z,20.51
2023-05-19T20:06:39.528Z,20.44
2023-05-19T20:09:06.788Z,20.43
2023-05-19T20:11:33.270Z,20.31
2023-05-19T20:13:59.724Z,20.25
2023-05-19T20:16:26.449Z,20.25
2023-05-19T20:18:53.085Z,20.13
2023-05-19T20:21:19.578Z,20.13
2023-05-19T20:23:46.279Z,20.13
2023-05-19T20:26:13.619Z,20.16
2023-05-19T20:28:40.484Z,20.15
2023-05-19T20:31:07.368Z,20.13
2023-05-19T20:33:33.995Z,20.10
2023-05-19T20:36:00.485Z,20.04
2023-05-19T20:38:27.238Z,19.99
2023-05-19T20:40:54.468Z,19.95
2023-05-19T20:43:21.254Z,19.91
2023-05-19T20:45:47.910Z,19.85
2023-05-19T20:48:15.930Z,19.79
2023-05-19T20:50:42.703Z,19.75
2023-05-19T20:53:09.222Z,19.75
2023-05-19T20:55:38.603Z,19.70
2023-05-19T20:58:05.466Z,19.65
2023-05-19T21:00:32.518Z,19.66
2023-05-19T21:02:59.427Z,19.66
2023-05-19T21:05:26.122Z,19.65
2023-05-19T21:07:52.594Z,19.65
2023-05-19T21:10:19.062Z,19.62
2023-05-19T21:12:46.411Z,19.57
2023-05-19T21:15:13.066Z,19.58
2023-05-19T21:17:39.599Z,19.58
2023-05-19T21:20:06.545Z,19.57
2023-05-19T21:22:33.060Z,19.56
2023-05-19T21:24:59.495Z,19.53
2023-05-19T21:27:26.135Z,19.49
2023-05-19T21:29:54.222Z,19.52
2023-05-19T21:32:21.435Z,19.50
2023-05-19T21:34:47.918Z,19.44
2023-05-19T21:37:18.358Z,19.44
2023-05-19T21:39:45.072Z,19.41
2023-05-19T21:42:11.592Z,19.43
2023-05-19T21:44:38.091Z,19.38
2023-05-19T21:47:04.622Z,19.37
2023-05-19T21:49:31.372Z,19.36
2023-05-19T21:51:57.983Z,19.35
2023-05-19T21:54:24.670Z,19.36
2023-05-19T21:56:51.147Z,19.36
2023-05-19T21:59:17.875Z,19.34
2023-05-19T22:01:44.481Z,19.32
2023-05-19T22:04:11.465Z,19.34
2023-05-19T22:06:37.989Z,19.34
2023-05-19T22:09:04.561Z,19.32
2023-05-19T22:11:31.043Z,19.32
2023-05-19T22:13:57.541Z,19.29
2023-05-19T22:16:24.048Z,19.29
2023-05-19T22:18:50.676Z,19.25
2023-05-19T22:21:17.363Z,19.25
2023-05-19T22:23:44.021Z,19.28
2023-05-19T22:26:10.547Z,19.26
2023-05-19T22:28:36.989Z,19.28
2023-05-19T22:31:04.227Z,19.23
2023-05-19T22:33:30.963Z,19.24
2023-05-19T22:35:57.845Z,19.24
2023-05-19T22:38:24.435Z,19.21
2023-05-19T22:40:51.019Z,19.20
2023-05-19T22:43:20.707Z,19.19
2023-05-19T22:45:48.284Z,19.21
2023-05-19T22:48:14.821Z,19.20
2023-05-19T22:50:41.367Z,19.22
2023-05-19T22:53:07.800Z,19.22
2023-05-19T22:55:34.472Z,19.25
2023-05-19T22:58:01.267Z,19.25
2023-05-19T23:00:27.712Z,19.25
2023-05-19T23:02:54.358Z,19.19
2023-05-19T23:05:20.945Z,19.22
2023-05-19T23:07:50.448Z,19.17
2023-05-19T23:10:16.895Z,19.16
2023-05-19T23:12:43.325Z,19.13
2023-05-19T23:15:10.962Z,19.11
2023-05-19T23:17:37.646Z,19.13
2023-05-19T23:20:04.469Z,19.11
2023-05-19T23:22:30.909Z,19.15
2023-05-19T23:24:57.505Z,19.13
2023-05-19T23:27:23.981Z,19.11
2023-05-19T23:29:51.279Z,19.09
2023-05-19T23:32:17.958Z,19.07
2023-05-19T23:34:44.395Z,19.05
2023-05-19T23:37:11.733Z,19.07
2023-05-19T23:39:38.415Z,19.07
2023-05-19T23:42:05.756Z,19.05
2023-05-19T23:44:32.221Z,19.08
2023-05-19T23:46:58.743Z,19.08
2023-05-19T23:49:25.316Z,19.05
2023-05-19T23:51:51.998Z,19.04
2023-05-19T23:54:18.461Z,19.04
2023-05-19T23:56:44.891Z,19.03
2023-05-19T23:59:11.371Z,19.00
